.
WxDataArchive / Data Records for 2011-08-31
2011-08-30 August 2011 2011-09-01

Data Records for Wednesday, 31 August 2011

Time	Temp	Chill	HIndex	Humid	Dewpt	 Wind 	HiWind	WindDir	Rain 	Barom 
-----	----	-----	------	-----	-----	------	------	-------	-----	----- 
00:00	65.2	65.2	65.2	73	56.3	0	1	45	0.00	30.040 
00:05	65.0	65.0	65.0	74	56.5	0	1	45	0.00	30.040 
00:10	64.8	64.8	64.8	74	56.3	0	0	---	0.00	30.040 
00:15	64.5	64.5	64.5	74	56.0	0	0	---	0.00	30.048 
00:20	64.3	64.3	64.3	75	56.2	0	0	---	0.00	30.048 
00:25	64.2	64.2	64.2	75	56.1	0	0	---	0.00	30.048 
00:30	63.9	63.9	63.9	76	56.2	0	0	---	0.00	30.051 
00:35	63.7	63.7	63.7	76	56.0	0	0	---	0.00	30.051 
00:40	63.4	63.4	63.4	77	56.1	0	0	---	0.00	30.051 
00:45	63.2	63.2	63.2	77	55.9	0	0	---	0.00	30.049 
00:50	63.1	63.1	63.1	78	56.1	0	0	---	0.00	30.049 
00:55	63.1	63.1	63.1	79	56.5	0	0	---	0.00	30.049 
01:00	62.9	62.9	62.9	79	56.3	0	0	---	0.00	30.047 
01:05	62.9	62.9	62.9	79	56.3	0	0	---	0.00	30.047 
01:10	62.9	62.9	62.9	80	56.6	0	0	---	0.00	30.047 
01:15	62.9	62.9	62.9	80	56.6	0	0	---	0.00	30.052 
01:20	62.7	62.7	62.7	81	56.8	0	0	---	0.00	30.052 
01:25	62.7	62.7	62.7	81	56.8	0	1	45	0.00	30.052 
01:30	62.7	62.7	62.7	81	56.8	0	1	45	0.00	30.049 
01:35	62.7	62.7	62.7	81	56.8	0	0	---	0.00	30.049 
01:40	62.7	62.7	62.7	81	56.8	0	0	---	0.00	30.049 
01:45	62.7	62.7	62.7	81	56.8	0	0	---	0.00	30.067 
01:50	62.7	62.7	62.7	81	56.8	0	0	---	0.00	30.067 
01:55	62.6	62.6	62.6	82	57.0	0	0	---	0.00	30.067 
02:00	62.6	62.6	62.6	82	57.0	0	1	45	0.00	30.066 
02:05	62.6	62.6	62.6	82	57.0	0	1	45	0.00	30.066 
02:10	62.4	62.4	62.4	83	57.2	0	1	45	0.00	30.066 
02:15	62.4	62.4	62.4	83	57.2	0	0	---	0.00	30.066 
02:20	62.4	62.4	62.4	83	57.2	0	0	---	0.00	30.066 
02:25	62.3	62.3	62.3	83	57.1	0	0	---	0.00	30.066 
02:30	62.1	62.1	62.1	84	57.2	0	0	---	0.00	30.064 
02:35	62.0	62.0	62.0	84	57.1	0	0	---	0.00	30.064 
02:40	61.8	61.8	61.8	84	56.9	0	0	---	0.00	30.064 
02:45	61.6	61.6	61.6	84	56.7	0	0	---	0.00	30.059 
02:50	61.6	61.6	61.6	84	56.7	0	0	---	0.00	30.059 
02:55	61.6	61.6	61.6	84	56.7	0	0	---	0.00	30.059 
03:00	61.8	61.8	61.8	84	56.9	0	1	45	0.00	30.056 
03:05	62.0	62.0	62.0	84	57.1	0	0	---	0.00	30.056 
03:10	62.1	62.1	62.1	84	57.2	0	1	45	0.00	30.056 
03:15	62.1	62.1	62.1	83	56.9	0	2	45	0.00	30.051 
03:20	62.3	62.3	62.3	83	57.1	0	1	45	0.00	30.051 
03:25	62.3	62.3	62.3	83	57.1	0	0	---	0.00	30.051 
03:30	62.3	62.3	62.3	83	57.1	0	1	45	0.00	30.061 
03:35	62.3	62.3	62.3	83	57.1	0	1	45	0.00	30.061 
03:40	62.3	62.3	62.3	83	57.1	0	0	---	0.00	30.061 
03:45	62.3	62.3	62.3	83	57.1	0	0	---	0.00	30.064 
03:50	62.3	62.3	62.3	84	57.4	0	0	---	0.00	30.064 
03:55	62.3	62.3	62.3	84	57.4	0	1	45	0.00	30.064 
04:00	62.1	62.1	62.1	84	57.2	0	0	---	0.00	30.065 
04:05	62.1	62.1	62.1	84	57.2	0	1	45	0.00	30.065 
04:10	62.1	62.1	62.1	84	57.2	0	0	---	0.00	30.065 
04:15	62.1	62.1	62.1	84	57.2	0	0	---	0.00	30.067 
04:20	62.1	62.1	62.1	84	57.2	0	0	---	0.00	30.067 
04:25	62.1	62.1	62.1	84	57.2	0	0	---	0.00	30.067 
04:30	62.1	62.1	62.1	84	57.2	0	0	---	0.00	30.065 
04:35	62.1	62.1	62.1	84	57.2	0	0	---	0.00	30.065 
04:40	62.1	62.1	62.1	84	57.2	0	0	---	0.00	30.065 
04:45	62.1	62.1	62.1	85	57.5	0	0	---	0.00	30.064 
04:50	62.1	62.1	62.1	85	57.5	0	1	45	0.00	30.064 
04:55	62.3	62.3	62.3	85	57.7	0	1	45	0.00	30.064 
05:00	62.3	62.3	62.3	85	57.7	0	2	45	0.00	30.051 
05:05	62.3	62.3	62.3	85	57.7	0	1	45	0.00	30.051 
05:10	62.3	62.3	62.3	85	57.7	0	1	45	0.00	30.051 
05:15	62.3	62.3	62.3	85	57.7	0	0	---	0.00	30.064 
05:20	62.3	62.3	62.3	86	58.1	0	0	---	0.00	30.064 
05:25	62.3	62.3	62.3	86	58.1	0	0	---	0.00	30.064 
05:30	62.3	62.3	62.3	86	58.1	0	0	---	0.00	30.058 
05:35	62.3	62.3	62.3	86	58.1	0	0	---	0.00	30.058 
05:40	62.3	62.3	62.3	86	58.1	0	0	---	0.00	30.058 
05:45	62.3	62.3	62.3	87	58.4	0	0	---	0.00	30.067 
05:50	62.3	62.3	62.3	87	58.4	0	0	---	0.00	30.067 
05:55	62.3	62.3	62.3	87	58.4	0	0	---	0.00	30.067 
06:00	62.3	62.3	62.3	87	58.4	0	0	---	0.00	30.066 
06:05	62.3	62.3	62.3	87	58.4	0	0	---	0.00	30.066 
06:10	62.3	62.3	62.3	88	58.7	0	0	---	0.00	30.066 
06:15	62.3	62.3	62.3	88	58.7	0	0	---	0.00	30.070 
06:20	62.4	62.4	62.4	88	58.8	0	0	---	0.00	30.070 
06:25	62.4	62.4	62.4	88	58.8	0	0	---	0.00	30.070 
06:30	62.4	62.4	62.4	88	58.8	0	0	---	0.00	30.074 
06:35	62.4	62.4	62.4	88	58.8	0	0	---	0.00	30.074 
06:40	62.4	62.4	62.4	88	58.8	0	1	45	0.00	30.074 
06:45	62.4	62.4	62.4	88	58.8	0	1	45	0.00	30.080 
06:50	62.4	62.4	62.4	87	58.5	0	0	---	0.00	30.080 
06:55	62.4	62.4	62.4	87	58.5	0	0	---	0.00	30.080 
07:00	62.4	62.4	62.4	87	58.5	0	1	45	0.00	30.080 
07:05	62.6	62.6	62.6	86	58.3	0	2	45	0.00	30.080 
07:10	62.7	62.7	62.7	86	58.4	0	1	45	0.00	30.080 
07:15	62.7	62.7	62.7	85	58.1	0	2	45	0.00	30.082 
07:20	62.7	62.7	62.7	85	58.1	0	1	45	0.00	30.082 
07:25	62.9	62.9	62.9	86	58.6	0	2	45	0.00	30.082 
07:30	62.9	62.9	62.9	86	58.6	0	1	45	0.00	30.084 
07:35	62.9	62.9	62.9	86	58.6	0	1	45	0.00	30.084 
07:40	62.7	62.7	62.7	87	58.8	0	0	---	0.01	30.084 
07:45	62.7	62.7	62.7	87	58.8	0	0	---	0.01	30.097 
07:50	62.6	62.6	62.6	88	59.0	0	0	---	0.00	30.097 
07:55	62.4	62.4	62.4	89	59.1	0	0	---	0.01	30.097 
08:00	62.4	62.4	62.4	90	59.4	0	1	45	0.01	30.097 
08:05	62.4	62.4	62.4	90	59.4	0	0	---	0.00	30.097 
08:10	62.3	62.3	62.3	91	59.6	0	0	---	0.00	30.097 
08:15	62.3	62.3	62.3	91	59.6	0	1	45	0.00	30.096 
08:20	62.1	62.1	62.1	91	59.4	0	1	45	0.00	30.096 
08:25	62.0	62.0	62.0	91	59.3	0	1	45	0.00	30.096 
08:30	62.0	62.0	62.0	92	59.6	0	0	---	0.00	30.092 
08:35	62.0	62.0	62.0	92	59.6	0	1	45	0.00	30.092 
08:40	62.0	62.0	62.0	92	59.6	0	2	45	0.00	30.092 
08:45	62.0	62.0	62.0	92	59.6	1	2	45	0.00	30.088 
08:50	61.8	61.8	61.8	92	59.4	0	1	45	0.00	30.088 
08:55	61.8	61.8	61.8	92	59.4	1	3	45	0.00	30.088 
09:00	62.0	62.0	62.0	92	59.6	0	0	---	0.00	30.090 
09:05	62.0	62.0	62.0	92	59.6	1	2	45	0.00	30.090 
09:10	62.1	62.1	62.1	92	59.7	0	2	45	0.00	30.090 
09:15	62.1	62.1	62.1	92	59.7	0	1	45	0.00	30.090 
09:20	62.3	62.3	62.3	93	60.2	0	0	---	0.00	30.090 
09:25	62.4	62.4	62.4	93	60.3	0	0	---	0.00	30.090 
09:30	62.6	62.6	62.6	93	60.5	0	1	45	0.00	30.088 
09:35	62.7	62.7	62.7	93	60.6	0	2	45	0.00	30.088 
09:40	62.9	62.9	62.9	92	60.5	0	1	45	0.00	30.088 
09:45	63.1	63.1	63.1	92	60.7	0	1	45	0.00	30.084 
09:50	63.2	63.2	63.2	92	60.8	0	1	45	0.00	30.084 
09:55	63.5	63.5	63.5	92	61.1	0	1	45	0.00	30.084 
10:00	63.5	63.5	63.5	91	60.8	0	1	45	0.00	30.081 
10:05	63.7	63.7	63.7	91	61.0	0	2	45	0.00	30.081 
10:10	63.9	63.9	63.9	90	60.9	0	2	45	0.00	30.081 
10:15	64.0	64.0	64.0	89	60.7	1	2	45	0.00	30.083 
10:20	64.2	64.2	64.2	89	60.9	1	3	45	0.00	30.083 
10:25	64.5	64.5	64.5	89	61.2	0	3	45	0.00	30.083 
10:30	65.0	65.0	65.0	89	61.7	0	1	45	0.00	30.085 
10:35	65.3	65.3	65.3	88	61.6	0	3	45	0.00	30.085 
10:40	65.8	65.8	65.8	87	61.8	0	2	90	0.00	30.085 
10:45	66.3	66.3	66.3	85	61.6	1	2	90	0.00	30.086 
10:50	66.6	66.6	66.6	84	61.6	0	2	90	0.00	30.086 
10:55	66.9	66.9	66.9	83	61.6	0	2	90	0.00	30.086 
11:00	67.1	67.1	67.1	83	61.8	0	2	90	0.00	30.083 
11:05	67.4	67.4	67.4	82	61.7	0	2	90	0.00	30.083 
11:10	67.8	67.8	67.8	81	61.7	0	2	90	0.00	30.083 
11:15	67.9	67.9	67.9	81	61.8	0	1	112	0.00	30.086 
11:20	68.3	68.3	68.3	80	61.9	0	2	112	0.00	30.086 
11:25	68.3	68.3	68.3	80	61.9	1	3	135	0.00	30.086 
11:30	68.6	68.6	68.6	80	62.2	0	2	135	0.00	30.084 
11:35	68.8	68.8	68.8	80	62.4	1	4	135	0.00	30.084 
11:40	68.9	68.9	68.9	80	62.5	1	3	68	0.00	30.084 
11:45	69.3	69.3	69.3	80	62.9	0	2	90	0.00	30.075 
11:50	69.8	69.8	69.8	78	62.6	0	2	90	0.00	30.075 
11:55	70.3	70.3	70.3	77	62.7	1	5	90	0.00	30.075 
12:00	70.8	70.8	70.8	77	63.2	1	4	90	0.00	30.068 
12:05	71.5	71.5	71.5	76	63.5	1	2	90	0.00	30.068 
12:10	72.1	72.1	72.1	74	63.3	0	3	90	0.00	30.068 
12:15	73.2	73.2	73.2	73	64.0	0	2	90	0.00	30.064 
12:20	74.2	74.2	74.2	70	63.8	1	3	90	0.00	30.064 
12:25	74.9	74.9	74.9	67	63.2	1	4	68	0.00	30.064 
12:30	75.3	75.3	77.4	64	62.3	1	3	68	0.00	30.054 
12:35	75.4	75.4	77.5	63	61.9	0	1	68	0.00	30.054 
12:40	75.8	75.8	77.8	61	61.4	1	3	68	0.00	30.054 
12:45	76.1	76.1	78.1	56	59.2	1	3	68	0.00	30.052 
12:50	76.8	76.8	78.5	53	58.4	1	4	90	0.00	30.052 
12:55	77.7	77.7	79.1	52	58.6	2	4	90	0.00	30.052 
13:00	78.3	78.3	79.4	49	57.5	2	6	90	0.00	30.040 
13:05	79.0	79.0	80.1	52	59.8	1	3	90	0.00	30.040 
13:10	79.6	79.6	80.5	50	59.3	1	3	90	0.00	30.040 
13:15	80.1	80.1	80.6	47	58.0	1	3	68	0.00	30.033 
13:20	80.5	80.5	81.0	48	59.0	1	4	68	0.00	30.033 
13:25	80.7	80.7	81.0	46	58.0	2	5	112	0.00	30.033 
13:30	80.7	80.7	81.1	47	58.6	2	4	112	0.00	30.030 
13:35	81.1	81.1	81.4	46	58.3	1	4	90	0.00	30.030 
13:40	81.6	81.6	81.8	46	58.8	2	6	68	0.00	30.030 
13:45	82.0	82.0	82.2	46	59.1	2	6	68	0.00	30.020 
13:50	82.2	82.2	82.4	46	59.3	2	4	90	0.00	30.020 
13:55	82.6	82.6	82.8	46	59.7	2	6	90	0.00	30.020 
14:00	83.0	83.0	82.9	44	58.8	1	5	112	0.00	30.015 
14:05	83.6	83.6	83.7	45	60.0	1	4	45	0.00	30.015 
14:10	84.0	84.0	84.3	46	61.0	1	5	45	0.00	30.015 
14:15	84.3	84.3	84.1	43	59.3	2	6	0	0.00	30.014 
14:20	84.5	84.5	84.9	46	61.4	1	5	90	0.00	30.014 
14:25	84.9	84.9	85.0	44	60.5	1	3	90	0.00	30.014 
14:30	84.9	84.9	85.2	45	61.2	2	5	90	0.00	30.012 
14:35	85.1	85.1	85.4	45	61.3	1	5	112	0.00	30.012 
14:40	84.9	84.9	85.2	45	61.2	1	4	315	0.00	30.012 
14:45	85.5	85.5	86.2	46	62.3	0	1	315	0.00	30.003 
14:50	86.1	86.1	86.7	45	62.2	1	4	135	0.00	30.003 
14:55	86.1	86.1	86.2	43	61.0	1	3	315	0.00	30.003 
15:00	86.1	86.1	86.2	43	61.0	2	7	90	0.00	29.994 
15:05	86.3	86.3	86.2	42	60.5	1	4	68	0.00	29.994 
15:10	86.5	86.5	86.5	42	60.6	2	6	135	0.00	29.994 
15:15	86.7	86.7	87.0	43	61.5	1	5	68	0.00	29.989 
15:20	86.7	86.7	86.7	42	60.8	1	5	90	0.00	29.989 
15:25	86.7	86.7	86.7	42	60.8	2	4	90	0.00	29.989 
15:30	87.0	87.0	87.1	42	61.1	1	4	248	0.00	29.986 
15:35	86.3	86.3	86.2	42	60.5	2	5	270	0.00	29.986 
15:40	85.7	85.7	85.7	43	60.6	1	3	292	0.00	29.986 
15:45	85.3	85.3	85.7	45	61.5	1	6	90	0.00	29.986 
15:50	85.3	85.3	85.7	45	61.5	1	3	22	0.00	29.986 
15:55	85.5	85.5	86.6	48	63.5	0	3	68	0.00	29.986 
16:00	86.1	86.1	86.7	45	62.2	1	5	90	0.00	29.982 
16:05	86.3	86.3	87.2	46	63.0	1	4	90	0.00	29.982 
16:10	86.1	86.1	86.7	45	62.2	1	3	112	0.00	29.982 
16:15	85.9	85.9	86.4	45	62.1	1	7	112	0.00	29.979 
16:20	85.9	85.9	86.4	45	62.1	0	4	90	0.00	29.979 
16:25	85.7	85.7	86.4	46	62.5	1	4	90	0.00	29.979 
16:30	85.7	85.7	86.4	46	62.5	0	2	90	0.00	29.979 
16:35	85.5	85.5	86.4	47	62.9	1	3	90	0.00	29.979 
16:40	85.3	85.3	85.9	46	62.1	1	5	112	0.00	29.979 
16:45	85.3	85.3	85.9	46	62.1	1	4	68	0.00	29.973 
16:50	85.1	85.1	85.9	47	62.6	1	3	68	0.00	29.973 
16:55	85.3	85.3	86.1	47	62.8	1	4	22	0.00	29.973 
17:00	85.5	85.5	86.2	46	62.3	1	4	22	0.00	29.964 
17:05	85.9	85.9	86.7	46	62.7	1	3	292	0.00	29.964 
17:10	86.3	86.3	87.0	45	62.4	1	4	68	0.00	29.964 
17:15	86.3	86.3	87.0	45	62.4	1	6	90	0.00	29.961 
17:20	86.5	86.5	86.7	43	61.3	1	5	90	0.00	29.961 
17:25	86.5	86.5	87.2	45	62.6	0	3	90	0.00	29.961 
17:30	86.3	86.3	86.7	44	61.8	1	4	90	0.00	29.963 
17:35	86.1	86.1	86.0	42	60.3	1	3	112	0.00	29.963 
17:40	85.9	85.9	86.0	43	60.8	1	3	158	0.00	29.963 
17:45	85.7	85.7	86.0	44	61.2	0	4	158	0.00	29.962 
17:50	85.7	85.7	86.2	45	61.9	1	3	0	0.00	29.962 
17:55	85.9	85.9	86.2	44	61.4	1	3	292	0.00	29.962 
18:00	86.1	86.1	86.7	45	62.2	0	4	315	0.00	29.960 
18:05	85.9	85.9	86.2	44	61.4	1	3	292	0.00	29.960 
18:10	85.7	85.7	86.2	45	61.9	1	4	68	0.00	29.960 
18:15	85.7	85.7	86.4	46	62.5	0	3	68	0.00	29.962 
18:20	85.3	85.3	85.9	46	62.1	1	4	90	0.00	29.962 
18:25	85.1	85.1	85.7	46	62.0	1	4	248	0.00	29.962 
18:30	84.9	84.9	85.6	47	62.4	1	5	68	0.00	29.964 
18:35	84.9	84.9	85.6	47	62.4	0	3	68	0.00	29.964 
18:40	84.7	84.7	85.4	47	62.2	1	3	68	0.00	29.964 
18:45	84.7	84.7	85.8	49	63.4	0	2	68	0.00	29.965 
18:50	84.5	84.5	85.6	49	63.2	0	2	45	0.00	29.965 
18:55	84.5	84.5	85.6	49	63.2	1	5	68	0.00	29.965 
19:00	84.1	84.1	85.0	49	62.8	1	4	90	0.00	29.964 
19:05	84.0	84.0	85.1	50	63.3	1	3	90	0.00	29.964 
19:10	83.8	83.8	84.9	50	63.1	0	2	90	0.00	29.964 
19:15	83.8	83.8	84.9	50	63.1	0	2	90	0.00	29.964 
19:20	83.6	83.6	84.8	51	63.5	0	2	248	0.00	29.964 
19:25	83.6	83.6	85.0	52	64.1	0	2	68	0.00	29.964 
19:30	83.6	83.6	84.8	51	63.5	0	2	315	0.00	29.961 
19:35	83.4	83.4	84.8	52	63.9	0	1	315	0.00	29.961 
19:40	83.4	83.4	84.8	52	63.9	0	1	315	0.00	29.961 
19:45	83.2	83.2	84.5	52	63.7	0	1	0	0.00	29.959 
19:50	83.0	83.0	84.5	53	64.1	0	1	0	0.00	29.959 
19:55	82.8	82.8	84.4	54	64.4	0	1	0	0.00	29.959 
20:00	82.6	82.6	84.1	54	64.2	0	0	---	0.00	29.960 
20:05	82.4	82.4	84.1	55	64.6	0	1	0	0.00	29.960 
20:10	82.0	82.0	83.6	55	64.2	0	0	---	0.00	29.960 
20:15	81.8	81.8	83.5	56	64.5	0	0	---	0.00	29.962 
20:20	81.4	81.4	83.3	58	65.2	0	0	---	0.00	29.962 
20:25	81.1	81.1	82.9	58	64.9	0	0	---	0.00	29.962 
20:30	80.7	80.7	82.5	59	65.0	0	0	---	0.00	29.963 
20:35	80.3	80.3	82.2	60	65.1	0	0	---	0.00	29.963 
20:40	79.8	79.8	81.6	60	64.7	0	0	---	0.00	29.963 
20:45	79.4	79.4	81.2	61	64.8	0	0	---	0.00	29.968 
20:50	78.8	78.8	80.6	62	64.7	0	0	---	0.00	29.968 
20:55	78.5	78.5	80.3	63	64.8	0	0	---	0.00	29.968 
21:00	78.1	78.1	80.0	65	65.4	0	0	---	0.00	29.970 
21:05	77.7	77.7	79.6	66	65.4	0	0	---	0.00	29.970 
21:10	77.4	77.4	79.2	66	65.1	0	0	---	0.00	29.970 
21:15	77.2	77.2	79.0	67	65.4	0	0	---	0.00	29.976 
21:20	76.8	76.8	78.6	68	65.4	0	0	---	0.00	29.976 
21:25	76.7	76.7	78.4	69	65.7	0	0	---	0.00	29.976 
21:30	76.5	76.5	78.2	69	65.6	0	0	---	0.00	29.979 
21:35	76.3	76.3	78.0	70	65.8	0	0	---	0.00	29.979 
21:40	76.0	76.0	77.6	71	65.9	0	0	---	0.00	29.979 
21:45	75.8	75.8	77.4	71	65.7	0	0	---	0.00	29.983 
21:50	75.6	75.6	77.2	71	65.5	0	0	---	0.00	29.983 
21:55	75.3	75.3	76.7	73	66.0	0	0	---	0.00	29.983 
22:00	75.1	75.1	76.5	73	65.8	0	0	---	0.00	29.985 
22:05	74.7	74.7	74.7	74	65.8	0	0	---	0.00	29.985 
22:10	74.6	74.6	74.6	75	66.1	0	0	---	0.00	29.985 
22:15	74.4	74.4	74.4	75	65.9	0	0	---	0.00	29.982 
22:20	74.2	74.2	74.2	76	66.1	0	0	---	0.00	29.982 
22:25	73.9	73.9	73.9	76	65.8	0	0	---	0.00	29.982 
22:30	73.9	73.9	73.9	77	66.2	0	0	---	0.00	29.981 
22:35	73.7	73.7	73.7	77	66.0	0	0	---	0.00	29.981 
22:40	73.5	73.5	73.5	77	65.8	0	0	---	0.00	29.981 
22:45	73.3	73.3	73.3	78	66.0	0	0	---	0.00	29.978 
22:50	73.3	73.3	73.3	78	66.0	0	0	---	0.00	29.978 
22:55	73.2	73.2	73.2	79	66.3	0	0	---	0.00	29.978 
23:00	73.2	73.2	73.2	79	66.3	0	0	---	0.00	29.980 
23:05	73.2	73.2	73.2	79	66.3	0	0	---	0.00	29.980 
23:10	73.2	73.2	73.2	79	66.3	0	0	---	0.00	29.980 
23:15	73.2	73.2	73.2	79	66.3	0	0	---	0.00	29.979 
23:20	73.3	73.3	73.3	79	66.4	0	0	---	0.00	29.979 
23:25	73.7	73.7	73.7	78	66.4	0	0	---	0.00	29.979 
23:30	73.9	73.9	73.9	77	66.2	0	0	---	0.00	29.978 
23:35	74.2	74.2	74.2	77	66.5	0	0	---	0.00	29.978 
23:40	74.4	74.4	74.4	76	66.3	0	0	---	0.00	29.978 
23:45	74.7	74.7	74.7	75	66.2	0	1	315	0.00	29.980 
23:50	75.3	75.3	76.6	74	66.4	0	0	---	0.00	29.980 
23:55	75.6	75.6	77.0	73	66.3	0	1	315	0.00	29.980 

CoCoRaHS
IN-AL-39
A2 Web Hosting
Creative Commons License
GoDaddy
search engine by freefind advanced

loaded 2018-11-18 11:44:09 • last modified 2010-11-18 10:43:29
Privacy PolicyDisclaimer
• wx.awcolley.com is powered by PmWiki v.2002016 •
• all content (unless otherwise noted) © 2018 A W Colley